createdAt,value
2019-01-05T00:02:38.255Z,102684.88
2019-01-05T00:07:02.695Z,102674.88
2019-01-05T00:11:26.909Z,102668.35
2019-01-05T00:20:29.270Z,102671.43
2019-01-05T00:24:53.443Z,102662.29
2019-01-05T00:29:43.941Z,102657.06
2019-01-05T00:39:05.716Z,102652.27
2019-01-05T02:42:54.761Z,102595.22
2019-01-05T02:57:19.382Z,102559.05
2019-01-05T03:02:21.566Z,102559.47
2019-01-05T03:07:23.872Z,102552.09
2019-01-05T03:12:26.108Z,102552.92
2019-01-05T03:17:24.431Z,102530.67
2019-01-05T03:22:26.606Z,102527.20
2019-01-05T03:27:16.935Z,102521.98
2019-01-05T03:37:01.872Z,102517.16
2019-01-05T03:42:04.036Z,102522.81
2019-01-05T03:47:09.011Z,102518.41
2019-01-05T03:52:00.194Z,102511.45
2019-01-05T03:56:57.184Z,102497.89
2019-01-05T04:12:12.537Z,102483.02
2019-01-05T04:17:14.718Z,102480.44
2019-01-05T04:22:16.937Z,102468.20
2019-01-05T04:27:19.109Z,102466.45
2019-01-05T04:32:21.332Z,102458.58
2019-01-05T04:37:24.575Z,102459.86
2019-01-05T04:42:26.775Z,102455.02
2019-01-05T04:47:28.929Z,102445.82
2019-01-05T04:52:31.079Z,102433.63
2019-01-05T04:57:33.311Z,102433.16
2019-01-05T05:02:25.314Z,102428.33
2019-01-05T05:12:22.229Z,102427.39
2019-01-05T05:17:24.636Z,102410.73
2019-01-05T05:22:26.955Z,102405.89
2019-01-05T05:27:26.289Z,102403.68
2019-01-05T05:32:31.247Z,102398.39
2019-01-05T05:37:34.502Z,102396.64
2019-01-05T05:43:00.367Z,102409.22
2019-01-05T05:48:05.572Z,102411.36
2019-01-05T05:53:10.570Z,102401.75
2019-01-05T05:58:12.781Z,102406.52
2019-01-05T06:03:22.727Z,102409.47
2019-01-05T06:08:26.631Z,102406.00
2019-01-05T06:13:28.837Z,102422.09
2019-01-05T06:18:31.956Z,102417.70
2019-01-05T06:23:32.518Z,102416.31
2019-01-05T06:28:48.034Z,102423.28
2019-01-05T06:33:58.361Z,102420.56
2019-01-05T06:38:59.449Z,102432.28
2019-01-05T06:43:53.436Z,102422.55
2019-01-05T06:48:55.865Z,102423.05
2019-01-05T06:53:58.069Z,102428.25
2019-01-05T06:58:52.812Z,102431.28
2019-01-05T07:03:55.221Z,102435.17
2019-01-05T07:08:57.448Z,102435.59
2019-01-05T07:13:46.307Z,102428.16
2019-01-05T07:18:48.528Z,102432.05
2019-01-05T07:28:57.483Z,102439.38
2019-01-05T07:33:59.751Z,102449.02
2019-01-05T07:38:54.585Z,102449.95
2019-01-05T07:43:56.754Z,102452.16
2019-01-05T07:53:49.732Z,102460.94
2019-01-05T07:58:46.482Z,102449.57
2019-01-05T08:03:48.643Z,102461.77
2019-01-05T08:08:50.866Z,102466.54
2019-01-05T08:18:50.152Z,102447.34
2019-01-05T08:23:52.458Z,102459.61
2019-01-05T08:28:55.633Z,102454.41
2019-01-05T08:33:57.805Z,102467.52
2019-01-05T08:38:59.978Z,102463.13
2019-01-05T08:44:02.148Z,102465.36
2019-01-05T08:48:56.673Z,102463.18
2019-01-05T08:53:58.853Z,102466.25
2019-01-05T08:59:01.036Z,102478.93
2019-01-05T09:09:16.551Z,102478.98
2019-01-05T09:14:07.921Z,102471.06
2019-01-05T09:19:10.105Z,102481.99
2019-01-05T09:23:56.036Z,102487.22
2019-01-05T09:28:58.180Z,102487.22
2019-01-05T09:34:00.594Z,102487.23
2019-01-05T09:39:02.760Z,102490.69
2019-01-05T09:43:57.051Z,102486.37
2019-01-05T09:48:59.466Z,102489.84
2019-01-05T09:54:01.671Z,102487.17
2019-01-05T09:59:03.853Z,102491.55
2019-01-05T10:03:49.011Z,102483.70
2019-01-05T10:08:51.201Z,102491.08
2019-01-05T10:13:36.586Z,102479.67
2019-01-05T10:24:02.616Z,102466.45
2019-01-05T10:38:53.491Z,102470.41
2019-01-05T10:44:06.547Z,102463.44
2019-01-05T10:49:08.728Z,102462.98
2019-01-05T10:54:10.946Z,102462.09
2019-01-05T11:03:55.482Z,102454.70
2019-01-05T11:08:57.610Z,102444.17
2019-01-05T11:13:43.748Z,102434.47
2019-01-05T11:18:45.943Z,102437.95
2019-01-05T11:23:48.110Z,102434.11
2019-01-05T11:28:50.258Z,102434.98
2019-01-05T11:33:47.059Z,102427.94
2019-01-05T11:43:45.237Z,102415.73
2019-01-05T11:48:50.433Z,102415.72
2019-01-05T11:53:52.594Z,102418.88
2019-01-05T11:58:54.830Z,102420.14
2019-01-05T12:03:57.025Z,102410.56
2019-01-05T12:08:49.940Z,102414.48
2019-01-05T12:13:47.016Z,102400.48
2019-01-05T12:18:37.540Z,102395.73
2019-01-05T12:23:32.091Z,102400.85
2019-01-05T12:28:20.727Z,102402.23
2019-01-05T12:33:23.898Z,102393.10
2019-01-05T12:38:26.092Z,102394.88
2019-01-05T12:43:28.281Z,102390.95
2019-01-05T12:48:33.540Z,102397.06
2019-01-05T12:53:16.580Z,102410.12
2019-01-05T12:58:15.592Z,102406.63
2019-01-05T13:03:17.755Z,102411.41
2019-01-05T13:08:19.985Z,102409.70
2019-01-05T13:13:10.875Z,102413.16
2019-01-05T13:18:09.317Z,102411.41
2019-01-05T13:22:59.414Z,102408.69
2019-01-05T13:28:04.542Z,102417.12
2019-01-05T13:33:06.710Z,102427.18
2019-01-05T13:38:08.890Z,102422.34
2019-01-05T13:43:11.096Z,102429.24
2019-01-05T13:48:13.264Z,102412.20
2019-01-05T13:53:15.424Z,102410.49
2019-01-05T13:57:39.556Z,102411.73
2019-01-05T14:02:03.567Z,102414.73
2019-01-05T14:06:27.595Z,102415.20
2019-01-05T14:10:52.025Z,102415.14
2019-01-05T14:15:16.096Z,102418.22
2019-01-05T14:19:40.059Z,102422.95
2019-01-05T14:24:04.159Z,102420.83
2019-01-05T14:28:28.281Z,102432.27
2019-01-05T14:32:52.377Z,102432.27
2019-01-05T14:37:16.477Z,102428.36
2019-01-05T14:41:32.184Z,102437.16
2019-01-05T14:45:56.158Z,102440.11
2019-01-05T14:50:20.183Z,102446.23
2019-01-05T14:54:44.163Z,102442.86
2019-01-05T14:59:08.264Z,102456.42
2019-01-05T15:03:32.342Z,102452.97
2019-01-05T15:07:56.382Z,102461.30
2019-01-05T15:12:20.525Z,102459.63
2019-01-05T15:16:45.062Z,102471.87
2019-01-05T15:21:09.094Z,102459.30
2019-01-05T15:39:10.015Z,102454.58
2019-01-05T15:43:46.588Z,102460.75
2019-01-05T15:52:47.732Z,102457.70
2019-01-05T16:01:46.909Z,102471.30
2019-01-05T16:06:10.967Z,102475.62
2019-01-05T16:10:55.676Z,102474.77
2019-01-05T16:15:19.718Z,102475.20
2019-01-05T16:19:43.726Z,102463.47
2019-01-05T16:24:07.789Z,102463.47
2019-01-05T16:28:31.737Z,102479.99
2019-01-05T16:32:55.878Z,102478.73
2019-01-05T16:51:03.138Z,102477.92
2019-01-05T16:55:27.230Z,102490.14
2019-01-05T16:59:47.577Z,102485.33
2019-01-05T17:04:13.349Z,102476.59
2019-01-05T17:08:37.671Z,102491.41
2019-01-05T17:13:01.680Z,102505.88
2019-01-05T17:17:25.925Z,102489.25
2019-01-05T17:21:50.025Z,102502.33
2019-01-05T17:26:07.754Z,102499.68
2019-01-05T17:30:32.124Z,102508.03
2019-01-05T17:34:57.401Z,102509.78
2019-01-05T17:39:21.650Z,102514.16
2019-01-05T17:48:20.995Z,102503.27
2019-01-05T17:57:07.780Z,102508.06
2019-01-05T18:15:05.463Z,102487.67
2019-01-05T18:19:29.749Z,102500.75
2019-01-05T18:55:13.056Z,102485.16
2019-01-05T18:59:37.070Z,102500.03
2019-01-05T19:09:04.204Z,102497.86
2019-01-05T19:13:28.221Z,102494.41
2019-01-05T19:17:49.385Z,102497.02
2019-01-05T19:22:13.424Z,102495.65
2019-01-05T19:26:37.473Z,102488.64
2019-01-05T19:31:02.313Z,102488.58
2019-01-05T19:35:25.138Z,102485.53
2019-01-05T19:39:49.101Z,102492.97
2019-01-05T19:44:13.190Z,102495.58
2019-01-05T19:48:37.235Z,102492.95
2019-01-05T19:53:01.329Z,102500.34
2019-01-05T19:57:25.427Z,102502.08
2019-01-05T20:01:54.384Z,102503.84
2019-01-05T20:11:07.542Z,102503.38
2019-01-05T20:15:27.109Z,102511.25
2019-01-05T20:25:11.333Z,102518.69
2019-01-05T20:29:35.797Z,102511.33
2019-01-05T20:33:58.766Z,102515.72
2019-01-05T20:38:41.011Z,102510.95
2019-01-05T20:43:05.773Z,102523.61
2019-01-05T20:47:30.441Z,102524.06
2019-01-05T20:51:54.595Z,102524.06
2019-01-05T21:01:24.531Z,102527.55
2019-01-05T21:05:49.949Z,102526.23
2019-01-05T21:29:45.817Z,102549.73
2019-01-05T21:34:14.101Z,102553.64
2019-01-05T21:38:36.965Z,102549.72
2019-01-05T21:43:01.038Z,102548.39
2019-01-05T21:47:36.036Z,102555.80
2019-01-05T21:52:03.002Z,102545.76
2019-01-05T21:56:18.427Z,102535.75
2019-01-05T22:00:47.231Z,102537.11
2019-01-05T22:05:10.241Z,102541.06
2019-01-05T22:09:32.622Z,102533.64
2019-01-05T22:14:05.631Z,102528.89
2019-01-05T22:18:31.800Z,102528.44
2019-01-05T22:22:54.422Z,102528.44
2019-01-05T22:27:22.732Z,102533.22
2019-01-05T22:31:45.468Z,102512.74
2019-01-05T22:36:14.625Z,102518.41
2019-01-05T22:40:37.475Z,102528.44
2019-01-05T22:45:00.393Z,102520.58
2019-01-05T22:49:22.736Z,102527.12
2019-01-05T22:53:41.190Z,102524.08
2019-01-05T22:58:08.222Z,102506.64
2019-01-05T23:02:38.135Z,102520.16
2019-01-05T23:07:11.048Z,102516.20
2019-01-05T23:11:33.392Z,102500.52
2019-01-05T23:16:12.636Z,102505.73
2019-01-05T23:20:35.385Z,102504.38
2019-01-05T23:24:52.793Z,102501.80
2019-01-05T23:29:19.958Z,102497.91
2019-01-05T23:33:56.344Z,102489.66
2019-01-05T23:38:18.673Z,102482.67
2019-01-05T23:42:47.184Z,102471.75
2019-01-05T23:47:07.225Z,102471.33
2019-01-05T23:51:43.398Z,102471.38
2019-01-05T23:56:07.031Z,102472.28
